sensor_id;sensor_type;location;lat;lon;timestamp;pressure;altitude;pressure_sealevel;temperature;humidity
50226;BME280;36113;50.742;6.432;2022-12-13T00:01:18;143738.59;;;-5.29;100.00
50226;BME280;36113;50.742;6.432;2022-12-13T00:03:43;143731.16;;;-5.32;100.00
50226;BME280;36113;50.742;6.432;2022-12-13T00:06:09;143780.63;;;-5.11;100.00
50226;BME280;36113;50.742;6.432;2022-12-13T00:08:36;143810.28;;;-4.99;100.00
50226;BME280;36113;50.742;6.432;2022-12-13T00:11:04;143795.47;;;-5.05;100.00
50226;BME280;36113;50.742;6.432;2022-12-13T00:13:31;143809.06;;;-4.99;100.00
50226;BME280;36113;50.742;6.432;2022-12-13T00:16:02;143810.28;;;-4.99;100.00
50226;BME280;36113;50.742;6.432;2022-12-13T00:18:28;143843.69;;;-4.85;100.00
50226;BME280;36113;50.742;6.432;2022-12-13T00:20:53;143852.34;;;-4.81;100.00
50226;BME280;36113;50.742;6.432;2022-12-13T00:23:19;143861.06;;;-4.78;100.00
50226;BME280;36113;50.742;6.432;2022-12-13T00:25:45;143861.06;;;-4.78;100.00
50226;BME280;36113;50.742;6.432;2022-12-13T00:28:10;143817.72;;;-4.96;100.00
50226;BME280;36113;50.742;6.432;2022-12-13T00:30:36;143861.06;;;-4.78;100.00
50226;BME280;36113;50.742;6.432;2022-12-13T00:33:01;143832.59;;;-4.90;100.00
50226;BME280;36113;50.742;6.432;2022-12-13T00:35:26;143843.69;;;-4.85;100.00
50226;BME280;36113;50.742;6.432;2022-12-13T00:37:52;143844.97;;;-4.84;100.00
50226;BME280;36113;50.742;6.432;2022-12-13T00:40:17;143795.47;;;-5.05;100.00
50226;BME280;36113;50.742;6.432;2022-12-13T00:42:42;143785.56;;;-5.09;100.00
50226;BME280;36113;50.742;6.432;2022-12-13T00:45:08;143747.25;;;-5.25;100.00
50226;BME280;36113;50.742;6.432;2022-12-13T00:47:34;143741.06;;;-5.28;100.00
50226;BME280;36113;50.742;6.432;2022-12-13T00:49:59;143708.91;;;-5.41;100.00
50226;BME280;36113;50.742;6.432;2022-12-13T00:52:25;143674.28;;;-5.55;100.00
50226;BME280;36113;50.742;6.432;2022-12-13T00:54:50;143639.69;;;-5.70;100.00
50226;BME280;36113;50.742;6.432;2022-12-13T00:57:15;143633.53;;;-5.72;100.00
50226;BME280;36113;50.742;6.432;2022-12-13T00:59:41;143618.66;;;-5.78;100.00
50226;BME280;36113;50.742;6.432;2022-12-13T01:02:06;143597.66;;;-5.87;100.00
50226;BME280;36113;50.742;6.432;2022-12-13T01:04:31;143582.81;;;-5.93;100.00
50226;BME280;36113;50.742;6.432;2022-12-13T01:06:57;143577.88;;;-5.95;100.00
50226;BME280;36113;50.742;6.432;2022-12-13T01:09:24;143555.69;;;-6.05;100.00
50226;BME280;36113;50.742;6.432;2022-12-13T01:11:57;143559.41;;;-6.03;100.00
50226;BME280;36113;50.742;6.432;2022-12-13T01:14:23;143543.34;;;-6.10;100.00
50226;BME280;36113;50.742;6.432;2022-12-13T01:16:49;143552.00;;;-6.06;100.00
50226;BME280;36113;50.742;6.432;2022-12-13T01:19:14;143548.28;;;-6.08;100.00
50226;BME280;36113;50.742;6.432;2022-12-13T01:21:39;143522.34;;;-6.18;100.00
50226;BME280;36113;50.742;6.432;2022-12-13T01:24:05;143513.69;;;-6.22;100.00
50226;BME280;36113;50.742;6.432;2022-12-13T01:26:31;143508.72;;;-6.24;100.00
50226;BME280;36113;50.742;6.432;2022-12-13T01:28:57;143521.06;;;-6.19;100.00
50226;BME280;36113;50.742;6.432;2022-12-13T01:31:23;143543.34;;;-6.10;100.00
50226;BME280;36113;50.742;6.432;2022-12-13T01:33:48;143549.50;;;-6.07;100.00
50226;BME280;36113;50.742;6.432;2022-12-13T01:36:17;143514.91;;;-6.22;100.00
50226;BME280;36113;50.742;6.432;2022-12-13T01:38:42;143570.50;;;-5.98;100.00
50226;BME280;36113;50.742;6.432;2022-12-13T01:41:13;143577.88;;;-5.95;100.00
50226;BME280;36113;50.742;6.432;2022-12-13T01:46:04;143611.25;;;-5.81;100.00
50226;BME280;36113;50.742;6.432;2022-12-13T01:48:32;143612.50;;;-5.81;100.00
50226;BME280;36113;50.742;6.432;2022-12-13T01:51:02;143619.88;;;-5.78;100.00
50226;BME280;36113;50.742;6.432;2022-12-13T01:53:32;143600.16;;;-5.86;100.00
50226;BME280;36113;50.742;6.432;2022-12-13T01:56:03;143579.09;;;-5.95;100.00
50226;BME280;36113;50.742;6.432;2022-12-13T01:58:30;143560.63;;;-6.03;100.00
50226;BME280;36113;50.742;6.432;2022-12-13T02:00:57;143601.38;;;-5.86;100.00
50226;BME280;36113;50.742;6.432;2022-12-13T02:03:24;143605.09;;;-5.84;100.00
50226;BME280;36113;50.742;6.432;2022-12-13T02:05:55;143628.53;;;-5.74;100.00
50226;BME280;36113;50.742;6.432;2022-12-13T02:08:24;143626.09;;;-5.75;100.00
50226;BME280;36113;50.742;6.432;2022-12-13T02:10:50;143640.91;;;-5.69;100.00
50226;BME280;36113;50.742;6.432;2022-12-13T02:13:16;143639.69;;;-5.70;100.00
50226;BME280;36113;50.742;6.432;2022-12-13T02:16:00;143632.25;;;-5.73;100.00
50226;BME280;36113;50.742;6.432;2022-12-13T02:18:44;143631.03;;;-5.73;100.00
50226;BME280;36113;50.742;6.432;2022-12-13T02:21:29;143635.97;;;-5.71;100.00
50226;BME280;36113;50.742;6.432;2022-12-13T02:34:23;143644.63;;;-5.68;100.00
50226;BME280;36113;50.742;6.432;2022-12-13T02:39:38;143697.78;;;-5.46;100.00
50226;BME280;36113;50.742;6.432;2022-12-13T02:42:19;143710.13;;;-5.40;100.00
50226;BME280;36113;50.742;6.432;2022-12-13T02:45:08;143717.56;;;-5.37;100.00
50226;BME280;36113;50.742;6.432;2022-12-13T02:47:37;143623.59;;;-5.76;100.00
50226;BME280;36113;50.742;6.432;2022-12-13T02:50:06;143676.75;;;-5.54;100.00
50226;BME280;36113;50.742;6.432;2022-12-13T02:52:32;143654.53;;;-5.63;100.00
50226;BME280;36113;50.742;6.432;2022-12-13T02:54:58;143692.84;;;-5.48;100.00
50226;BME280;36113;50.742;6.432;2022-12-13T02:57:38;143737.38;;;-5.29;100.00
50226;BME280;36113;50.742;6.432;2022-12-13T03:00:11;143768.25;;;-5.16;100.00
50226;BME280;36113;50.742;6.432;2022-12-13T03:05:48;143705.19;;;-5.42;100.00
50226;BME280;36113;50.742;6.432;2022-12-13T03:11:14;143681.69;;;-5.52;100.00
50226;BME280;36113;50.742;6.432;2022-12-13T03:13:55;143653.25;;;-5.64;100.00
50226;BME280;36113;50.742;6.432;2022-12-13T03:16:28;143635.97;;;-5.71;100.00
50226;BME280;36113;50.742;6.432;2022-12-13T03:19:00;143518.63;;;-6.20;100.00
50226;BME280;36113;50.742;6.432;2022-12-13T03:21:25;143503.78;;;-6.26;100.00
50226;BME280;36113;50.742;6.432;2022-12-13T03:23:51;143449.44;;;-6.49;100.00
50226;BME280;36113;50.742;6.432;2022-12-13T03:26:20;143365.47;;;-6.84;100.00
50226;BME280;36113;50.742;6.432;2022-12-13T03:28:46;143328.44;;;-6.99;100.00
50226;BME280;36113;50.742;6.432;2022-12-13T03:31:11;143317.31;;;-7.04;100.00
50226;BME280;36113;50.742;6.432;2022-12-13T03:33:37;143306.19;;;-7.08;100.00
50226;BME280;36113;50.742;6.432;2022-12-13T03:36:06;143303.72;;;-7.09;100.00
50226;BME280;36113;50.742;6.432;2022-12-13T03:38:32;143314.84;;;-7.05;100.00
50226;BME280;36113;50.742;6.432;2022-12-13T03:41:00;143251.88;;;-7.31;100.00
50226;BME280;36113;50.742;6.432;2022-12-13T03:43:27;143287.69;;;-7.16;100.00
50226;BME280;36113;50.742;6.432;2022-12-13T03:45:53;143270.41;;;-7.23;100.00
50226;BME280;36113;50.742;6.432;2022-12-13T03:48:19;143243.22;;;-7.35;100.00
50226;BME280;36113;50.742;6.432;2022-12-13T03:50:44;143246.94;;;-7.33;100.00
50226;BME280;36113;50.742;6.432;2022-12-13T03:53:10;143218.53;;;-7.45;100.00
50226;BME280;36113;50.742;6.432;2022-12-13T03:55:35;143169.19;;;-7.65;100.00
50226;BME280;36113;50.742;6.432;2022-12-13T03:58:01;143198.78;;;-7.53;100.00
50226;BME280;36113;50.742;6.432;2022-12-13T04:00:26;143201.28;;;-7.52;100.00
50226;BME280;36113;50.742;6.432;2022-12-13T04:02:51;143204.97;;;-7.50;100.00
50226;BME280;36113;50.742;6.432;2022-12-13T04:05:17;143198.78;;;-7.53;100.00
50226;BME280;36113;50.742;6.432;2022-12-13T04:07:42;143192.66;;;-7.56;100.00
50226;BME280;36113;50.742;6.432;2022-12-13T04:10:08;143211.13;;;-7.48;100.00
50226;BME280;36113;50.742;6.432;2022-12-13T04:12:34;143195.13;;;-7.55;100.00
50226;BME280;36113;50.742;6.432;2022-12-13T04:15:18;143195.13;;;-7.55;100.00
50226;BME280;36113;50.742;6.432;2022-12-13T04:17:43;143200.06;;;-7.52;100.00
50226;BME280;36113;50.742;6.432;2022-12-13T04:20:09;143195.13;;;-7.55;100.00
50226;BME280;36113;50.742;6.432;2022-12-13T04:22:34;143256.78;;;-7.29;100.00
50226;BME280;36113;50.742;6.432;2022-12-13T04:25:00;143260.50;;;-7.27;100.00
50226;BME280;36113;50.742;6.432;2022-12-13T04:27:25;143354.34;;;-6.88;100.00
50226;BME280;36113;50.742;6.432;2022-12-13T04:29:50;143387.69;;;-6.74;100.00
50226;BME280;36113;50.742;6.432;2022-12-13T04:32:16;143386.47;;;-6.75;100.00
50226;BME280;36113;50.742;6.432;2022-12-13T04:34:41;143386.47;;;-6.75;100.00
50226;BME280;36113;50.742;6.432;2022-12-13T04:37:08;143385.25;;;-6.75;100.00
50226;BME280;36113;50.742;6.432;2022-12-13T04:39:33;143367.91;;;-6.83;100.00
50226;BME280;36113;50.742;6.432;2022-12-13T04:41:58;143335.84;;;-6.96;100.00
50226;BME280;36113;50.742;6.432;2022-12-13T04:44:24;143371.63;;;-6.81;100.00
50226;BME280;36113;50.742;6.432;2022-12-13T04:46:49;143365.47;;;-6.84;100.00
50226;BME280;36113;50.742;6.432;2022-12-13T04:49:14;143337.06;;;-6.95;100.00
50226;BME280;36113;50.742;6.432;2022-12-13T04:51:40;143313.59;;;-7.05;100.00
50226;BME280;36113;50.742;6.432;2022-12-13T04:54:05;143246.94;;;-7.33;100.00
50226;BME280;36113;50.742;6.432;2022-12-13T04:56:31;143300.03;;;-7.11;100.00
50226;BME280;36113;50.742;6.432;2022-12-13T04:58:57;143281.47;;;-7.19;100.00
50226;BME280;36113;50.742;6.432;2022-12-13T05:01:22;143285.19;;;-7.17;100.00
50226;BME280;36113;50.742;6.432;2022-12-13T05:03:47;143272.84;;;-7.22;100.00
50226;BME280;36113;50.742;6.432;2022-12-13T05:06:13;143221.03;;;-7.44;100.00
50226;BME280;36113;50.742;6.432;2022-12-13T05:08:39;143266.69;;;-7.25;100.00
50226;BME280;36113;50.742;6.432;2022-12-13T05:11:05;143288.91;;;-7.16;100.00
50226;BME280;36113;50.742;6.432;2022-12-13T05:13:31;143287.69;;;-7.16;100.00
50226;BME280;36113;50.742;6.432;2022-12-13T05:15:58;143287.69;;;-7.16;100.00
50226;BME280;36113;50.742;6.432;2022-12-13T05:18:24;143292.59;;;-7.14;100.00
50226;BME280;36113;50.742;6.432;2022-12-13T05:20:49;143275.34;;;-7.21;100.00
50226;BME280;36113;50.742;6.432;2022-12-13T05:23:19;143256.78;;;-7.29;100.00
50226;BME280;36113;50.742;6.432;2022-12-13T05:25:45;143225.97;;;-7.42;100.00
50226;BME280;36113;50.742;6.432;2022-12-13T05:28:10;143271.63;;;-7.23;100.00
50226;BME280;36113;50.742;6.432;2022-12-13T05:30:37;143280.25;;;-7.19;100.00
50226;BME280;36113;50.742;6.432;2022-12-13T05:33:03;143276.56;;;-7.21;100.00
50226;BME280;36113;50.742;6.432;2022-12-13T05:35:28;143275.34;;;-7.21;100.00
50226;BME280;36113;50.742;6.432;2022-12-13T05:37:53;143267.91;;;-7.24;100.00
50226;BME280;36113;50.742;6.432;2022-12-13T05:40:18;143214.84;;;-7.46;100.00
50226;BME280;36113;50.742;6.432;2022-12-13T05:42:44;143263.00;;;-7.26;100.00
50226;BME280;36113;50.742;6.432;2022-12-13T05:45:09;143279.03;;;-7.20;100.00
50226;BME280;36113;50.742;6.432;2022-12-13T05:47:36;143272.84;;;-7.22;100.00
50226;BME280;36113;50.742;6.432;2022-12-13T05:50:01;143271.63;;;-7.23;100.00
50226;BME280;36113;50.742;6.432;2022-12-13T05:52:26;143246.94;;;-7.33;100.00
50226;BME280;36113;50.742;6.432;2022-12-13T05:54:55;143264.22;;;-7.26;100.00
50226;BME280;36113;50.742;6.432;2022-12-13T05:57:21;143254.34;;;-7.30;100.00
50226;BME280;36113;50.742;6.432;2022-12-13T05:59:46;143274.13;;;-7.22;100.00
50226;BME280;36113;50.742;6.432;2022-12-13T06:02:12;143264.22;;;-7.26;100.00
50226;BME280;36113;50.742;6.432;2022-12-13T06:04:38;143264.22;;;-7.26;100.00
50226;BME280;36113;50.742;6.432;2022-12-13T06:07:03;143287.69;;;-7.16;100.00
50226;BME280;36113;50.742;6.432;2022-12-13T06:09:28;143300.03;;;-7.11;100.00
50226;BME280;36113;50.742;6.432;2022-12-13T06:11:54;143274.13;;;-7.22;100.00
50226;BME280;36113;50.742;6.432;2022-12-13T06:14:20;143301.25;;;-7.10;100.00
50226;BME280;36113;50.742;6.432;2022-12-13T06:16:45;143316.09;;;-7.04;100.00
50226;BME280;36113;50.742;6.432;2022-12-13T06:19:10;143338.28;;;-6.95;100.00
50226;BME280;36113;50.742;6.432;2022-12-13T06:21:36;143344.47;;;-6.92;100.00
50226;BME280;36113;50.742;6.432;2022-12-13T06:24:01;143358.06;;;-6.87;100.00
50226;BME280;36113;50.742;6.432;2022-12-13T06:26:29;143393.88;;;-6.72;100.00
50226;BME280;36113;50.742;6.432;2022-12-13T06:28:55;143342.00;;;-6.93;100.00
50226;BME280;36113;50.742;6.432;2022-12-13T06:31:20;143370.41;;;-6.82;100.00
50226;BME280;36113;50.742;6.432;2022-12-13T06:33:45;143386.47;;;-6.75;100.00
50226;BME280;36113;50.742;6.432;2022-12-13T06:36:11;143327.16;;;-7.00;100.00
50226;BME280;36113;50.742;6.432;2022-12-13T06:38:36;143402.53;;;-6.68;100.00
50226;BME280;36113;50.742;6.432;2022-12-13T06:41:13;143406.22;;;-6.67;100.00
50226;BME280;36113;50.742;6.432;2022-12-13T06:43:45;143349.41;;;-6.90;100.00
50226;BME280;36113;50.742;6.432;2022-12-13T06:46:11;143398.81;;;-6.70;100.00
50226;BME280;36113;50.742;6.432;2022-12-13T06:48:37;143402.53;;;-6.68;100.00
50226;BME280;36113;50.742;6.432;2022-12-13T06:51:05;143403.75;;;-6.68;100.00
50226;BME280;36113;50.742;6.432;2022-12-13T06:53:31;143348.19;;;-6.91;100.00
50226;BME280;36113;50.742;6.432;2022-12-13T06:56:02;143386.47;;;-6.75;100.00
50226;BME280;36113;50.742;6.432;2022-12-13T06:58:28;143371.63;;;-6.81;100.00
50226;BME280;36113;50.742;6.432;2022-12-13T07:03:33;143292.59;;;-7.14;100.00
50226;BME280;36113;50.742;6.432;2022-12-13T07:05:59;143338.28;;;-6.95;100.00
50226;BME280;36113;50.742;6.432;2022-12-13T07:08:27;143317.31;;;-7.04;100.00
50226;BME280;36113;50.742;6.432;2022-12-13T07:10:52;143316.09;;;-7.04;100.00
50226;BME280;36113;50.742;6.432;2022-12-13T07:13:19;143283.97;;;-7.18;100.00
50226;BME280;36113;50.742;6.432;2022-12-13T07:15:45;143249.44;;;-7.32;100.00
50226;BME280;36113;50.742;6.432;2022-12-13T07:18:11;143276.56;;;-7.21;100.00
50226;BME280;36113;50.742;6.432;2022-12-13T07:20:40;143286.47;;;-7.17;100.00
50226;BME280;36113;50.742;6.432;2022-12-13T07:23:05;143275.34;;;-7.21;100.00
50226;BME280;36113;50.742;6.432;2022-12-13T07:25:31;143297.53;;;-7.12;100.00
50226;BME280;36113;50.742;6.432;2022-12-13T07:27:58;143293.81;;;-7.13;100.00
50226;BME280;36113;50.742;6.432;2022-12-13T07:30:24;143272.84;;;-7.22;100.00
50226;BME280;36113;50.742;6.432;2022-12-13T07:32:49;143259.28;;;-7.28;100.00
50226;BME280;36113;50.742;6.432;2022-12-13T07:35:15;143253.13;;;-7.30;100.00
50226;BME280;36113;50.742;6.432;2022-12-13T07:37:40;143254.34;;;-7.30;100.00
50226;BME280;36113;50.742;6.432;2022-12-13T07:40:06;143237.09;;;-7.37;100.00
50226;BME280;36113;50.742;6.432;2022-12-13T07:42:32;143230.88;;;-7.40;100.00
50226;BME280;36113;50.742;6.432;2022-12-13T07:44:57;143223.47;;;-7.43;100.00
50226;BME280;36113;50.742;6.432;2022-12-13T07:47:28;143224.75;;;-7.42;100.00
50226;BME280;36113;50.742;6.432;2022-12-13T07:49:54;143170.44;;;-7.65;100.00
50226;BME280;36113;50.742;6.432;2022-12-13T07:52:19;143182.78;;;-7.60;100.00
50226;BME280;36113;50.742;6.432;2022-12-13T07:54:44;143214.84;;;-7.46;100.00
50226;BME280;36113;50.742;6.432;2022-12-13T07:57:10;143238.31;;;-7.37;100.00
50226;BME280;36113;50.742;6.432;2022-12-13T07:59:35;143239.53;;;-7.36;100.00
50226;BME280;36113;50.742;6.432;2022-12-13T08:02:00;143234.59;;;-7.38;100.00
50226;BME280;36113;50.742;6.432;2022-12-13T08:04:26;143238.31;;;-7.37;100.00
50226;BME280;36113;50.742;6.432;2022-12-13T08:06:51;143264.22;;;-7.26;100.00
50226;BME280;36113;50.742;6.432;2022-12-13T08:09:16;143282.75;;;-7.18;100.00
50226;BME280;36113;50.742;6.432;2022-12-13T08:11:42;143255.56;;;-7.29;100.00
50226;BME280;36113;50.742;6.432;2022-12-13T08:14:07;143297.53;;;-7.12;100.00
50226;BME280;36113;50.742;6.432;2022-12-13T08:16:32;143311.16;;;-7.06;100.00
50226;BME280;36113;50.742;6.432;2022-12-13T08:18:58;143323.50;;;-7.01;100.00
50226;BME280;36113;50.742;6.432;2022-12-13T08:21:24;143359.28;;;-6.86;100.00
50226;BME280;36113;50.742;6.432;2022-12-13T08:23:49;143306.19;;;-7.08;100.00
50226;BME280;36113;50.742;6.432;2022-12-13T08:26:14;143314.84;;;-7.05;100.00
50226;BME280;36113;50.742;6.432;2022-12-13T08:28:39;143362.97;;;-6.85;100.00
50226;BME280;36113;50.742;6.432;2022-12-13T08:31:08;143424.72;;;-6.59;100.00
50226;BME280;36113;50.742;6.432;2022-12-13T08:33:35;143429.66;;;-6.57;100.00
50226;BME280;36113;50.742;6.432;2022-12-13T08:36:10;143417.31;;;-6.62;100.00
50226;BME280;36113;50.742;6.432;2022-12-13T08:38:36;143425.94;;;-6.58;100.00
50226;BME280;36113;50.742;6.432;2022-12-13T08:41:03;143448.22;;;-6.49;100.00
50226;BME280;36113;50.742;6.432;2022-12-13T08:43:28;143449.44;;;-6.49;100.00
50226;BME280;36113;50.742;6.432;2022-12-13T08:45:54;143455.63;;;-6.46;100.00
50226;BME280;36113;50.742;6.432;2022-12-13T08:48:19;143480.34;;;-6.36;100.00
50226;BME280;36113;50.742;6.432;2022-12-13T08:50:44;143498.84;;;-6.28;100.00
50226;BME280;36113;50.742;6.432;2022-12-13T08:53:10;143521.06;;;-6.19;100.00
50226;BME280;36113;50.742;6.432;2022-12-13T08:55:35;143518.63;;;-6.20;100.00
50226;BME280;36113;50.742;6.432;2022-12-13T08:58:04;143561.84;;;-6.02;100.00
50226;BME280;36113;50.742;6.432;2022-12-13T09:00:34;143573.00;;;-5.97;100.00
50226;BME280;36113;50.742;6.432;2022-12-13T09:03:00;143550.75;;;-6.07;100.00
50226;BME280;36113;50.742;6.432;2022-12-13T09:05:27;143548.28;;;-6.08;100.00
50226;BME280;36113;50.742;6.432;2022-12-13T09:07:56;143533.44;;;-6.14;100.00
50226;BME280;36113;50.742;6.432;2022-12-13T09:10:22;143586.53;;;-5.92;100.00
50226;BME280;36113;50.742;6.432;2022-12-13T09:12:48;143528.50;;;-6.16;100.00
50226;BME280;36113;50.742;6.432;2022-12-13T09:15:13;143576.69;;;-5.96;100.00
50226;BME280;36113;50.742;6.432;2022-12-13T09:17:39;143523.56;;;-6.18;100.00
50226;BME280;36113;50.742;6.432;2022-12-13T09:20:07;143569.28;;;-5.99;100.00
50226;BME280;36113;50.742;6.432;2022-12-13T09:22:34;143589.00;;;-5.91;100.00
50226;BME280;36113;50.742;6.432;2022-12-13T09:25:00;143608.78;;;-5.82;100.00
50226;BME280;36113;50.742;6.432;2022-12-13T09:27:26;143621.16;;;-5.77;100.00
50226;BME280;36113;50.742;6.432;2022-12-13T09:29:52;143632.25;;;-5.73;100.00
50226;BME280;36113;50.742;6.432;2022-12-13T09:32:17;143660.69;;;-5.61;100.00
50226;BME280;36113;50.742;6.432;2022-12-13T09:34:42;143669.34;;;-5.57;100.00
50226;BME280;36113;50.742;6.432;2022-12-13T09:37:08;143684.19;;;-5.51;100.00
50226;BME280;36113;50.742;6.432;2022-12-13T09:39:33;143702.72;;;-5.43;100.00
50226;BME280;36113;50.742;6.432;2022-12-13T09:41:58;143726.22;;;-5.34;100.00
50226;BME280;36113;50.742;6.432;2022-12-13T09:44:33;143702.72;;;-5.43;100.00
50226;BME280;36113;50.742;6.432;2022-12-13T09:47:01;143748.47;;;-5.24;100.00
50226;BME280;36113;50.742;6.432;2022-12-13T09:49:34;143733.66;;;-5.31;100.00
50226;BME280;36113;50.742;6.432;2022-12-13T09:52:02;143800.41;;;-5.03;100.00
50226;BME280;36113;50.742;6.432;2022-12-13T09:54:28;143797.94;;;-5.04;100.00
50226;BME280;36113;50.742;6.432;2022-12-13T09:56:55;143795.47;;;-5.05;100.00
50226;BME280;36113;50.742;6.432;2022-12-13T09:59:27;143783.13;;;-5.10;100.00
50226;BME280;36113;50.742;6.432;2022-12-13T10:01:55;143770.75;;;-5.15;100.00
50226;BME280;36113;50.742;6.432;2022-12-13T10:04:20;143817.72;;;-4.96;100.00
50226;BME280;36113;50.742;6.432;2022-12-13T10:06:50;143825.16;;;-4.93;100.00
50226;BME280;36113;50.742;6.432;2022-12-13T10:09:17;143867.22;;;-4.75;100.00
50226;BME280;36113;50.742;6.432;2022-12-13T10:11:52;143909.25;;;-4.58;100.00
50226;BME280;36113;50.742;6.432;2022-12-13T10:14:30;143899.38;;;-4.62;100.00
50226;BME280;36113;50.742;6.432;2022-12-13T10:16:59;143837.53;;;-4.87;100.00
50226;BME280;36113;50.742;6.432;2022-12-13T10:19:35;143887.00;;;-4.67;100.00
50226;BME280;36113;50.742;6.432;2022-12-13T10:22:06;143848.69;;;-4.83;100.00
50226;BME280;36113;50.742;6.432;2022-12-13T10:27:17;143943.94;;;-4.43;100.00
50226;BME280;36113;50.742;6.432;2022-12-13T10:30:21;143952.59;;;-4.40;100.00
50226;BME280;36113;50.742;6.432;2022-12-13T10:32:52;143963.72;;;-4.35;100.00
50226;BME280;36113;50.742;6.432;2022-12-13T10:37:44;144029.31;;;-4.08;100.00
50226;BME280;36113;50.742;6.432;2022-12-13T10:40:30;144008.28;;;-4.17;100.00
50226;BME280;36113;50.742;6.432;2022-12-13T10:43:20;143929.06;;;-4.49;100.00
50226;BME280;36113;50.742;6.432;2022-12-13T10:53:38;144016.94;;;-4.13;100.00
50226;BME280;36113;50.742;6.432;2022-12-13T10:56:04;143995.91;;;-4.22;100.00
50226;BME280;36113;50.742;6.432;2022-12-13T10:58:44;144091.22;;;-3.82;100.00
50226;BME280;36113;50.742;6.432;2022-12-13T11:01:20;144099.88;;;-3.79;100.00
50226;BME280;36113;50.742;6.432;2022-12-13T11:04:22;144080.06;;;-3.87;100.00
50226;BME280;36113;50.742;6.432;2022-12-13T11:06:47;144117.19;;;-3.71;100.00
50226;BME280;36113;50.742;6.432;2022-12-13T11:09:24;144132.09;;;-3.65;100.00
50226;BME280;36113;50.742;6.432;2022-12-13T11:11:54;144153.13;;;-3.56;100.00
50226;BME280;36113;50.742;6.432;2022-12-13T11:14:24;144210.13;;;-3.33;100.00
50226;BME280;36113;50.742;6.432;2022-12-13T11:16:54;144241.06;;;-3.20;100.00
50226;BME280;36113;50.742;6.432;2022-12-13T11:19:26;144145.69;;;-3.60;100.00
50226;BME280;36113;50.742;6.432;2022-12-13T11:21:54;144210.13;;;-3.33;100.00
50226;BME280;36113;50.742;6.432;2022-12-13T11:24:23;144215.06;;;-3.31;100.00
50226;BME280;36113;50.742;6.432;2022-12-13T11:26:56;144182.84;;;-3.44;100.00
50226;BME280;36113;50.742;6.432;2022-12-13T11:34:57;144304.28;;;-2.94;100.00
50226;BME280;36113;50.742;6.432;2022-12-13T11:37:32;144290.63;;;-2.99;100.00
50226;BME280;36113;50.742;6.432;2022-12-13T11:40:11;144298.06;;;-2.96;100.00
50226;BME280;36113;50.742;6.432;2022-12-13T11:42:46;144288.16;;;-3.00;100.00
50226;BME280;36113;50.742;6.432;2022-12-13T11:45:26;144315.41;;;-2.89;100.00
50226;BME280;36113;50.742;6.432;2022-12-13T11:53:20;144355.06;;;-2.73;100.00
50226;BME280;36113;50.742;6.432;2022-12-13T11:55:51;144346.41;;;-2.76;100.00
50226;BME280;36113;50.742;6.432;2022-12-13T11:58:31;144374.91;;;-2.65;100.00
50226;BME280;36113;50.742;6.432;2022-12-13T12:01:08;144366.25;;;-2.68;100.00
50226;BME280;36113;50.742;6.432;2022-12-13T12:03:40;144372.41;;;-2.66;100.00
50226;BME280;36113;50.742;6.432;2022-12-13T12:06:13;144336.47;;;-2.80;100.00
50226;BME280;36113;50.742;6.432;2022-12-13T12:08:56;144367.47;;;-2.68;100.00
50226;BME280;36113;50.742;6.432;2022-12-13T12:11:44;144405.88;;;-2.52;100.00
50226;BME280;36113;50.742;6.432;2022-12-13T12:16:49;144388.53;;;-2.59;100.00
50226;BME280;36113;50.742;6.432;2022-12-13T12:19:17;144407.09;;;-2.51;100.00
50226;BME280;36113;50.742;6.432;2022-12-13T12:43:31;144528.63;;;-2.01;100.00
50226;BME280;36113;50.742;6.432;2022-12-13T12:57:16;144431.91;;;-2.41;100.00
50226;BME280;36113;50.742;6.432;2022-12-13T13:00:08;144433.16;;;-2.40;100.00
50226;BME280;36113;50.742;6.432;2022-12-13T13:02:38;144415.78;;;-2.48;100.00
50226;BME280;36113;50.742;6.432;2022-12-13T13:05:16;144391.00;;;-2.58;100.00
50226;BME280;36113;50.742;6.432;2022-12-13T13:07:48;144428.19;;;-2.42;100.00
50226;BME280;36113;50.742;6.432;2022-12-13T13:10:17;144389.75;;;-2.58;100.00
50226;BME280;36113;50.742;6.432;2022-12-13T13:12:43;144431.91;;;-2.41;100.00
50226;BME280;36113;50.742;6.432;2022-12-13T13:17:56;144355.06;;;-2.73;100.00
50226;BME280;36113;50.742;6.432;2022-12-13T13:20:23;144410.81;;;-2.50;100.00
50226;BME280;36113;50.742;6.432;2022-12-13T13:22:53;144409.59;;;-2.50;100.00
50226;BME280;36113;50.742;6.432;2022-12-13T13:25:28;144422.00;;;-2.45;100.00
50226;BME280;36113;50.742;6.432;2022-12-13T13:28:02;144418.28;;;-2.47;100.00
50226;BME280;36113;50.742;6.432;2022-12-13T13:30:29;144425.72;;;-2.43;100.00
50226;BME280;36113;50.742;6.432;2022-12-13T13:32:56;144434.41;;;-2.40;100.00
50226;BME280;36113;50.742;6.432;2022-12-13T13:37:58;144357.53;;;-2.72;100.00
50226;BME280;36113;50.742;6.432;2022-12-13T13:40:33;144378.63;;;-2.63;100.00
50226;BME280;36113;50.742;6.432;2022-12-13T13:43:15;144389.75;;;-2.58;100.00
50226;BME280;36113;50.742;6.432;2022-12-13T14:00:14;144399.72;;;-2.54;100.00
50226;BME280;36113;50.742;6.432;2022-12-13T14:02:48;144393.47;;;-2.57;100.00
50226;BME280;36113;50.742;6.432;2022-12-13T14:08:46;144372.41;;;-2.66;100.00
50226;BME280;36113;50.742;6.432;2022-12-13T14:11:22;144383.59;;;-2.61;100.00
50226;BME280;36113;50.742;6.432;2022-12-13T14:19:56;144366.25;;;-2.68;100.00
50226;BME280;36113;50.742;6.432;2022-12-13T14:25:52;144338.97;;;-2.79;100.00
50226;BME280;36113;50.742;6.432;2022-12-13T14:31:22;144320.34;;;-2.87;100.00
50226;BME280;36113;50.742;6.432;2022-12-13T14:33:50;144327.78;;;-2.84;100.00
50226;BME280;36113;50.742;6.432;2022-12-13T14:36:24;144324.06;;;-2.86;100.00
50226;BME280;36113;50.742;6.432;2022-12-13T14:38:58;144252.22;;;-3.15;100.00
50226;BME280;36113;50.742;6.432;2022-12-13T14:41:24;144303.00;;;-2.94;100.00
50226;BME280;36113;50.742;6.432;2022-12-13T14:43:49;144247.28;;;-3.17;100.00
50226;BME280;36113;50.742;6.432;2022-12-13T14:46:14;144280.72;;;-3.04;100.00